sensor_id;sensor_type;location;lat;lon;timestamp;pressure;altitude;pressure_sealevel;temperature;humidity
41573;BME280;27286;47.870;19.006;2022-11-15T00:00:51;99769.63;;;5.08;72.61
41573;BME280;27286;47.870;19.006;2022-11-15T00:03:20;99777.34;;;5.10;72.74
41573;BME280;27286;47.870;19.006;2022-11-15T00:05:46;99774.69;;;5.13;73.52
41573;BME280;27286;47.870;19.006;2022-11-15T00:08:12;99770.31;;;5.18;73.40
41573;BME280;27286;47.870;19.006;2022-11-15T00:10:38;99761.81;;;5.13;73.46
41573;BME280;27286;47.870;19.006;2022-11-15T00:13:07;99758.34;;;5.14;73.39
41573;BME280;27286;47.870;19.006;2022-11-15T00:15:41;99761.69;;;5.19;73.43
41573;BME280;27286;47.870;19.006;2022-11-15T00:18:11;99759.97;;;5.20;73.58
41573;BME280;27286;47.870;19.006;2022-11-15T00:20:40;99749.78;;;5.12;73.62
41573;BME280;27286;47.870;19.006;2022-11-15T00:23:07;99753.16;;;5.16;73.96
41573;BME280;27286;47.870;19.006;2022-11-15T00:25:32;99758.25;;;5.20;73.64
41573;BME280;27286;47.870;19.006;2022-11-15T00:27:59;99756.56;;;5.21;73.36
41573;BME280;27286;47.870;19.006;2022-11-15T00:30:26;99743.66;;;5.18;73.03
41573;BME280;27286;47.870;19.006;2022-11-15T00:32:52;99740.19;;;5.20;73.10
41573;BME280;27286;47.870;19.006;2022-11-15T00:35:18;99750.38;;;5.29;73.25
41573;BME280;27286;47.870;19.006;2022-11-15T00:37:44;99729.00;;;5.21;73.18
41573;BME280;27286;47.870;19.006;2022-11-15T00:40:11;99737.56;;;5.23;73.10
41573;BME280;27286;47.870;19.006;2022-11-15T00:42:40;99742.63;;;5.29;73.56
41573;BME280;27286;47.870;19.006;2022-11-15T00:45:06;99738.38;;;5.27;74.17
41573;BME280;27286;47.870;19.006;2022-11-15T00:47:31;99750.44;;;5.26;74.23
41573;BME280;27286;47.870;19.006;2022-11-15T00:49:57;99738.47;;;5.21;74.38
41573;BME280;27286;47.870;19.006;2022-11-15T00:52:23;99738.38;;;5.27;74.59
41573;BME280;27286;47.870;19.006;2022-11-15T00:54:48;99746.00;;;5.34;74.84
41573;BME280;27286;47.870;19.006;2022-11-15T00:57:14;99741.63;;;5.39;75.08
41573;BME280;27286;47.870;19.006;2022-11-15T00:59:39;99743.22;;;5.48;75.68
41573;BME280;27286;47.870;19.006;2022-11-15T01:02:07;99736.28;;;5.50;75.52
41573;BME280;27286;47.870;19.006;2022-11-15T01:04:32;99730.34;;;5.45;75.44
41573;BME280;27286;47.870;19.006;2022-11-15T01:06:57;99733.84;;;5.42;75.32
41573;BME280;27286;47.870;19.006;2022-11-15T01:09:23;99726.41;;;5.23;76.33
41573;BME280;27286;47.870;19.006;2022-11-15T01:11:48;99722.94;;;5.24;76.71
41573;BME280;27286;47.870;19.006;2022-11-15T01:14:14;99727.97;;;5.31;76.82
41573;BME280;27286;47.870;19.006;2022-11-15T01:16:42;99733.09;;;5.34;76.55
41573;BME280;27286;47.870;19.006;2022-11-15T01:19:07;99732.19;;;5.38;76.37
41573;BME280;27286;47.870;19.006;2022-11-15T01:21:32;99710.06;;;5.22;76.25
41573;BME280;27286;47.870;19.006;2022-11-15T01:24:00;99710.88;;;5.24;76.78
41573;BME280;27286;47.870;19.006;2022-11-15T01:26:28;99709.09;;;5.28;76.44
41573;BME280;27286;47.870;19.006;2022-11-15T01:28:53;99721.09;;;5.32;76.31
41573;BME280;27286;47.870;19.006;2022-11-15T01:31:20;99716.72;;;5.35;76.84
41573;BME280;27286;47.870;19.006;2022-11-15T01:33:46;99701.25;;;5.34;77.50
41573;BME280;27286;47.870;19.006;2022-11-15T01:36:14;99712.38;;;5.39;78.13
41573;BME280;27286;47.870;19.006;2022-11-15T01:38:42;99715.75;;;5.44;77.88
41573;BME280;27286;47.870;19.006;2022-11-15T01:41:20;99718.41;;;5.36;77.07
41573;BME280;27286;47.870;19.006;2022-11-15T01:43:48;99721.00;;;5.36;77.23
41573;BME280;27286;47.870;19.006;2022-11-15T01:48:44;99696.28;;;5.23;76.82
41573;BME280;27286;47.870;19.006;2022-11-15T01:51:12;99720.16;;;5.36;77.04
41573;BME280;27286;47.870;19.006;2022-11-15T01:53:43;99721.88;;;5.35;77.47
41573;BME280;27286;47.870;19.006;2022-11-15T01:56:19;99711.69;;;5.28;77.13
41573;BME280;27286;47.870;19.006;2022-11-15T01:58:45;99715.91;;;5.32;77.46
41573;BME280;27286;47.870;19.006;2022-11-15T02:01:12;99711.59;;;5.34;77.45
41573;BME280;27286;47.870;19.006;2022-11-15T02:04:00;99707.25;;;5.36;77.78
41573;BME280;27286;47.870;19.006;2022-11-15T02:06:27;99702.16;;;5.31;77.86
41573;BME280;27286;47.870;19.006;2022-11-15T02:08:53;99697.81;;;5.33;77.97
41573;BME280;27286;47.870;19.006;2022-11-15T02:11:19;99693.47;;;5.38;77.81
41573;BME280;27286;47.870;19.006;2022-11-15T02:13:45;99684.19;;;5.25;78.07
41573;BME280;27286;47.870;19.006;2022-11-15T02:21:50;99678.84;;;5.36;78.02
41573;BME280;27286;47.870;19.006;2022-11-15T02:30:24;99660.66;;;5.43;78.25
41573;BME280;27286;47.870;19.006;2022-11-15T02:32:55;99684.53;;;5.58;78.19
41573;BME280;27286;47.870;19.006;2022-11-15T02:36:02;99687.00;;;5.64;78.42
41573;BME280;27286;47.870;19.006;2022-11-15T02:41:15;99681.81;;;5.64;78.81
41573;BME280;27286;47.870;19.006;2022-11-15T02:44:08;99670.66;;;5.63;79.37
41573;BME280;27286;47.870;19.006;2022-11-15T02:46:54;99669.66;;;5.70;79.26
41573;BME280;27286;47.870;19.006;2022-11-15T02:49:47;99666.06;;;5.79;79.76
41573;BME280;27286;47.870;19.006;2022-11-15T02:52:21;99665.16;;;5.82;80.17
41573;BME280;27286;47.870;19.006;2022-11-15T02:54:58;99661.69;;;5.83;80.43
41573;BME280;27286;47.870;19.006;2022-11-15T02:57:48;99663.44;;;5.81;80.94
41573;BME280;27286;47.870;19.006;2022-11-15T03:00:18;99654.81;;;5.82;81.00
41573;BME280;27286;47.870;19.006;2022-11-15T03:08:17;99657.19;;;5.95;81.47
41573;BME280;27286;47.870;19.006;2022-11-15T03:11:11;99649.53;;;5.89;81.52
41573;BME280;27286;47.870;19.006;2022-11-15T03:19:20;99638.34;;;5.90;81.77
41573;BME280;27286;47.870;19.006;2022-11-15T03:21:52;99646.75;;;6.00;82.04
41573;BME280;27286;47.870;19.006;2022-11-15T03:24:20;99634.78;;;5.96;81.93
41573;BME280;27286;47.870;19.006;2022-11-15T03:26:52;99634.81;;;5.94;81.79
41573;BME280;27286;47.870;19.006;2022-11-15T03:29:31;99640.75;;;5.98;81.96
41573;BME280;27286;47.870;19.006;2022-11-15T03:32:02;99634.81;;;5.94;81.96
41573;BME280;27286;47.870;19.006;2022-11-15T03:34:32;99645.00;;;6.00;82.19
41573;BME280;27286;47.870;19.006;2022-11-15T03:36:59;99638.09;;;6.01;82.15
41573;BME280;27286;47.870;19.006;2022-11-15T03:39:26;99639.03;;;5.98;81.76
41573;BME280;27286;47.870;19.006;2022-11-15T03:44:40;99630.50;;;5.95;82.32
41573;BME280;27286;47.870;19.006;2022-11-15T03:47:14;99629.59;;;5.96;82.51
41573;BME280;27286;47.870;19.006;2022-11-15T03:49:44;99634.59;;;6.05;82.73
41573;BME280;27286;47.870;19.006;2022-11-15T03:52:12;99639.63;;;6.13;83.36
41573;BME280;27286;47.870;19.006;2022-11-15T03:54:47;99619.72;;;6.16;83.61
41573;BME280;27286;47.870;19.006;2022-11-15T03:57:13;99623.03;;;6.23;83.82
41573;BME280;27286;47.870;19.006;2022-11-15T03:59:38;99605.88;;;6.19;83.78
41573;BME280;27286;47.870;19.006;2022-11-15T04:02:03;99610.91;;;6.26;84.13
41573;BME280;27286;47.870;19.006;2022-11-15T04:04:29;99610.03;;;6.27;84.24
41573;BME280;27286;47.870;19.006;2022-11-15T04:06:54;99613.38;;;6.31;84.96
41573;BME280;27286;47.870;19.006;2022-11-15T04:09:20;99607.31;;;6.32;84.63
41573;BME280;27286;47.870;19.006;2022-11-15T04:11:45;99610.66;;;6.37;84.92
41573;BME280;27286;47.870;19.006;2022-11-15T04:14:10;99616.59;;;6.42;85.10
41573;BME280;27286;47.870;19.006;2022-11-15T04:16:36;99615.69;;;6.45;84.84
41573;BME280;27286;47.870;19.006;2022-11-15T04:19:01;99605.41;;;6.42;84.91
41573;BME280;27286;47.870;19.006;2022-11-15T04:21:45;99603.75;;;6.39;85.44
41573;BME280;27286;47.870;19.006;2022-11-15T04:24:29;99602.00;;;6.38;85.52
41573;BME280;27286;47.870;19.006;2022-11-15T04:26:54;99609.59;;;6.47;85.54
41573;BME280;27286;47.870;19.006;2022-11-15T04:29:20;99598.44;;;6.45;85.61
41573;BME280;27286;47.870;19.006;2022-11-15T04:32:05;99589.38;;;6.26;85.75
41573;BME280;27286;47.870;19.006;2022-11-15T04:34:32;99588.63;;;5.76;84.08
41573;BME280;27286;47.870;19.006;2022-11-15T04:36:57;99596.78;;;5.53;85.28
41573;BME280;27286;47.870;19.006;2022-11-15T04:39:42;99602.47;;;5.73;90.54
41573;BME280;27286;47.870;19.006;2022-11-15T04:42:08;99607.00;;;5.61;89.18
41573;BME280;27286;47.870;19.006;2022-11-15T04:44:34;99592.66;;;5.44;88.99
41573;BME280;27286;47.870;19.006;2022-11-15T04:46:59;99595.00;;;5.58;91.99
41573;BME280;27286;47.870;19.006;2022-11-15T04:49:25;99587.31;;;5.54;91.20
41573;BME280;27286;47.870;19.006;2022-11-15T04:51:52;99586.53;;;5.50;92.04
41573;BME280;27286;47.870;19.006;2022-11-15T04:54:18;99572.53;;;5.62;93.96
41573;BME280;27286;47.870;19.006;2022-11-15T04:56:45;99582.00;;;5.61;92.76
41573;BME280;27286;47.870;19.006;2022-11-15T04:59:11;99584.63;;;5.60;93.20
41573;BME280;27286;47.870;19.006;2022-11-15T05:01:36;99576.72;;;5.67;94.31
41573;BME280;27286;47.870;19.006;2022-11-15T05:04:02;99584.44;;;5.69;93.78
41573;BME280;27286;47.870;19.006;2022-11-15T05:06:54;99573.50;;;5.56;92.79
41573;BME280;27286;47.870;19.006;2022-11-15T05:09:20;99567.53;;;5.53;93.27
41573;BME280;27286;47.870;19.006;2022-11-15T05:11:46;99560.75;;;5.47;93.76
41573;BME280;27286;47.870;19.006;2022-11-15T05:14:12;99553.09;;;5.42;93.36
41573;BME280;27286;47.870;19.006;2022-11-15T05:16:37;99567.41;;;5.60;94.31
41573;BME280;27286;47.870;19.006;2022-11-15T05:19:03;99572.53;;;5.62;94.86
41573;BME280;27286;47.870;19.006;2022-11-15T05:21:29;99582.94;;;5.59;94.69
41573;BME280;27286;47.870;19.006;2022-11-15T05:23:57;99570.63;;;5.70;95.86
41573;BME280;27286;47.870;19.006;2022-11-15T05:26:22;99572.38;;;5.69;94.80
41573;BME280;27286;47.870;19.006;2022-11-15T05:28:54;99573.28;;;5.67;93.48
41573;BME280;27286;47.870;19.006;2022-11-15T05:31:21;99575.00;;;5.68;94.08
41573;BME280;27286;47.870;19.006;2022-11-15T05:33:46;99568.84;;;5.75;95.05
41573;BME280;27286;47.870;19.006;2022-11-15T05:39:01;99567.44;;;5.59;94.34
41573;BME280;27286;47.870;19.006;2022-11-15T05:41:42;99570.56;;;5.74;95.50
41573;BME280;27286;47.870;19.006;2022-11-15T05:44:12;99569.03;;;5.64;94.72
41573;BME280;27286;47.870;19.006;2022-11-15T05:46:40;99567.41;;;5.60;94.08
41573;BME280;27286;47.870;19.006;2022-11-15T05:49:07;99565.38;;;5.76;95.76
41573;BME280;27286;47.870;19.006;2022-11-15T05:51:34;99564.56;;;5.74;95.37
41573;BME280;27286;47.870;19.006;2022-11-15T05:54:00;99553.25;;;5.80;95.26
41573;BME280;27286;47.870;19.006;2022-11-15T05:56:26;99547.88;;;5.92;94.94
41573;BME280;27286;47.870;19.006;2022-11-15T05:58:55;99559.59;;;6.08;94.21
41573;BME280;27286;47.870;19.006;2022-11-15T06:01:22;99563.69;;;6.17;93.70
41573;BME280;27286;47.870;19.006;2022-11-15T06:03:48;99567.00;;;6.25;93.32
41573;BME280;27286;47.870;19.006;2022-11-15T06:06:13;99557.34;;;6.31;92.57
41573;BME280;27286;47.870;19.006;2022-11-15T06:08:38;99567.50;;;6.41;92.02
41573;BME280;27286;47.870;19.006;2022-11-15T06:11:06;99554.56;;;6.41;91.41
41573;BME280;27286;47.870;19.006;2022-11-15T06:13:32;99568.13;;;6.50;91.06
41573;BME280;27286;47.870;19.006;2022-11-15T06:15:58;99564.59;;;6.54;90.43
41573;BME280;27286;47.870;19.006;2022-11-15T06:18:23;99548.34;;;6.49;89.85
41573;BME280;27286;47.870;19.006;2022-11-15T06:20:51;99561.88;;;6.60;89.51
41573;BME280;27286;47.870;19.006;2022-11-15T06:23:16;99561.00;;;6.61;89.59
41573;BME280;27286;47.870;19.006;2022-11-15T06:25:42;99555.91;;;6.58;89.44
41573;BME280;27286;47.870;19.006;2022-11-15T06:28:07;99568.63;;;6.66;88.97
41573;BME280;27286;47.870;19.006;2022-11-15T06:30:33;99566.97;;;6.63;88.81
41573;BME280;27286;47.870;19.006;2022-11-15T06:33:03;99576.34;;;6.68;88.83
41573;BME280;27286;47.870;19.006;2022-11-15T06:35:30;99570.34;;;6.67;88.69
41573;BME280;27286;47.870;19.006;2022-11-15T06:38:05;99567.75;;;6.67;88.76
41573;BME280;27286;47.870;19.006;2022-11-15T06:40:33;99571.97;;;6.71;88.31
41573;BME280;27286;47.870;19.006;2022-11-15T06:42:59;99571.88;;;6.76;88.25
41573;BME280;27286;47.870;19.006;2022-11-15T06:45:25;99577.00;;;6.77;88.19
41573;BME280;27286;47.870;19.006;2022-11-15T06:47:51;99571.84;;;6.77;88.10
41573;BME280;27286;47.870;19.006;2022-11-15T06:50:16;99573.56;;;6.77;88.07
41573;BME280;27286;47.870;19.006;2022-11-15T06:52:42;99562.47;;;6.72;88.42
41573;BME280;27286;47.870;19.006;2022-11-15T06:55:08;99577.03;;;6.76;88.18
41573;BME280;27286;47.870;19.006;2022-11-15T06:57:33;99574.38;;;6.79;88.56
41573;BME280;27286;47.870;19.006;2022-11-15T06:59:58;99568.41;;;6.77;88.12
41573;BME280;27286;47.870;19.006;2022-11-15T07:02:24;99569.94;;;6.84;88.17
41573;BME280;27286;47.870;19.006;2022-11-15T07:04:49;99565.56;;;6.86;87.69
41573;BME280;27286;47.870;19.006;2022-11-15T07:07:15;99562.34;;;6.78;87.75
41573;BME280;27286;47.870;19.006;2022-11-15T07:09:40;99578.47;;;6.87;87.86
41573;BME280;27286;47.870;19.006;2022-11-15T07:12:10;99570.69;;;6.89;88.10
41573;BME280;27286;47.870;19.006;2022-11-15T07:14:35;99563.88;;;6.85;88.36
41573;BME280;27286;47.870;19.006;2022-11-15T07:17:06;99567.16;;;6.93;88.29
41573;BME280;27286;47.870;19.006;2022-11-15T07:19:31;99561.16;;;6.91;88.18
41573;BME280;27286;47.870;19.006;2022-11-15T07:21:57;99546.47;;;6.91;88.45
41573;BME280;27286;47.870;19.006;2022-11-15T07:24:22;99542.19;;;6.90;88.36
41573;BME280;27286;47.870;19.006;2022-11-15T07:26:47;99548.06;;;6.97;88.62
41573;BME280;27286;47.870;19.006;2022-11-15T07:29:13;99557.34;;;7.04;88.29
41573;BME280;27286;47.870;19.006;2022-11-15T07:31:38;99557.31;;;7.07;88.35
41573;BME280;27286;47.870;19.006;2022-11-15T07:34:04;99548.69;;;7.05;88.32
41573;BME280;27286;47.870;19.006;2022-11-15T07:36:29;99544.41;;;7.04;88.29
41573;BME280;27286;47.870;19.006;2022-11-15T07:38:55;99538.25;;;7.10;88.34
41573;BME280;27286;47.870;19.006;2022-11-15T07:41:20;99545.94;;;7.13;88.21
41573;BME280;27286;47.870;19.006;2022-11-15T07:43:45;99542.41;;;7.15;87.95
41573;BME280;27286;47.870;19.006;2022-11-15T07:46:13;99539.69;;;7.20;88.36
41573;BME280;27286;47.870;19.006;2022-11-15T07:48:39;99542.09;;;7.28;87.97
41573;BME280;27286;47.870;19.006;2022-11-15T07:51:06;99542.09;;;7.28;88.34
41573;BME280;27286;47.870;19.006;2022-11-15T07:53:31;99545.41;;;7.33;88.31
41573;BME280;27286;47.870;19.006;2022-11-15T07:55:59;99535.06;;;7.33;88.34
41573;BME280;27286;47.870;19.006;2022-11-15T07:58:25;99517.91;;;7.29;88.18
41573;BME280;27286;47.870;19.006;2022-11-15T08:00:50;99530.69;;;7.35;88.18
41573;BME280;27286;47.870;19.006;2022-11-15T08:03:16;99534.06;;;7.37;88.19
41573;BME280;27286;47.870;19.006;2022-11-15T08:05:42;99519.56;;;7.31;88.29
41573;BME280;27286;47.870;19.006;2022-11-15T08:08:10;99535.69;;;7.42;87.66
41573;BME280;27286;47.870;19.006;2022-11-15T08:10:36;99532.94;;;7.47;87.79
41573;BME280;27286;47.870;19.006;2022-11-15T08:13:08;99542.38;;;7.49;87.54
41573;BME280;27286;47.870;19.006;2022-11-15T08:15:34;99539.03;;;7.46;87.30
41573;BME280;27286;47.870;19.006;2022-11-15T08:18:03;99543.31;;;7.47;87.68
41573;BME280;27286;47.870;19.006;2022-11-15T08:20:30;99534.75;;;7.45;87.57
41573;BME280;27286;47.870;19.006;2022-11-15T08:22:56;99522.78;;;7.41;87.64
41573;BME280;27286;47.870;19.006;2022-11-15T08:25:23;99515.09;;;7.36;87.51
41573;BME280;27286;47.870;19.006;2022-11-15T08:27:55;99517.53;;;7.42;87.60
41573;BME280;27286;47.870;19.006;2022-11-15T08:30:21;99516.59;;;7.45;87.89
41573;BME280;27286;47.870;19.006;2022-11-15T08:32:47;99507.13;;;7.44;88.11
41573;BME280;27286;47.870;19.006;2022-11-15T08:35:13;99509.63;;;7.47;88.34
41573;BME280;27286;47.870;19.006;2022-11-15T08:37:39;99514.63;;;7.53;88.65
41573;BME280;27286;47.870;19.006;2022-11-15T08:40:05;99511.19;;;7.52;88.47
41573;BME280;27286;47.870;19.006;2022-11-15T08:42:30;99512.91;;;7.53;89.21
41573;BME280;27286;47.870;19.006;2022-11-15T08:44:56;99511.16;;;7.54;89.07
41573;BME280;27286;47.870;19.006;2022-11-15T08:47:21;99497.31;;;7.55;88.52
41573;BME280;27286;47.870;19.006;2022-11-15T08:49:47;99496.34;;;7.59;88.75
41573;BME280;27286;47.870;19.006;2022-11-15T08:52:14;99499.69;;;7.63;88.44
41573;BME280;27286;47.870;19.006;2022-11-15T08:54:39;99503.22;;;7.60;88.49
41573;BME280;27286;47.870;19.006;2022-11-15T08:57:06;99505.78;;;7.62;88.46
41573;BME280;27286;47.870;19.006;2022-11-15T08:59:31;99499.06;;;7.54;88.56
41573;BME280;27286;47.870;19.006;2022-11-15T09:01:57;99497.25;;;7.58;88.27
41573;BME280;27286;47.870;19.006;2022-11-15T09:04:22;99481.81;;;7.53;88.46
41573;BME280;27286;47.870;19.006;2022-11-15T09:06:50;99491.09;;;7.62;88.64
41573;BME280;27286;47.870;19.006;2022-11-15T09:09:18;99479.91;;;7.60;88.52
41573;BME280;27286;47.870;19.006;2022-11-15T09:11:43;99473.00;;;7.61;88.79
41573;BME280;27286;47.870;19.006;2022-11-15T09:14:11;99461.63;;;7.65;88.94
41573;BME280;27286;47.870;19.006;2022-11-15T09:16:37;99463.25;;;7.69;89.24
41573;BME280;27286;47.870;19.006;2022-11-15T09:19:03;99467.53;;;7.70;89.61
41573;BME280;27286;47.870;19.006;2022-11-15T09:21:29;99471.72;;;7.75;89.70
41573;BME280;27286;47.870;19.006;2022-11-15T09:23:54;99470.06;;;7.73;90.05
41573;BME280;27286;47.870;19.006;2022-11-15T09:26:20;99476.66;;;7.83;90.04
41573;BME280;27286;47.870;19.006;2022-11-15T09:28:46;99478.41;;;7.82;90.20
41573;BME280;27286;47.870;19.006;2022-11-15T09:31:11;99460.25;;;7.82;90.11
41573;BME280;27286;47.870;19.006;2022-11-15T09:33:37;99465.28;;;7.87;89.95
41573;BME280;27286;47.870;19.006;2022-11-15T09:36:04;99463.53;;;7.88;90.34
41573;BME280;27286;47.870;19.006;2022-11-15T09:38:31;99461.16;;;7.81;90.23
41573;BME280;27286;47.870;19.006;2022-11-15T09:46:36;99467.84;;;7.89;90.88
41573;BME280;27286;47.870;19.006;2022-11-15T09:49:03;99454.97;;;7.85;90.56
41573;BME280;27286;47.870;19.006;2022-11-15T09:51:32;99447.94;;;7.89;90.60
41573;BME280;27286;47.870;19.006;2022-11-15T09:56:34;99441.66;;;7.98;90.28
41573;BME280;27286;47.870;19.006;2022-11-15T10:04:45;99436.47;;;7.98;91.03
41573;BME280;27286;47.870;19.006;2022-11-15T10:09:54;99412.19;;;8.00;90.84
41573;BME280;27286;47.870;19.006;2022-11-15T10:12:22;99423.22;;;8.07;90.63
41573;BME280;27286;47.870;19.006;2022-11-15T10:15:00;99411.97;;;8.08;90.39
41573;BME280;27286;47.870;19.006;2022-11-15T10:20:26;99396.94;;;8.18;90.13
41573;BME280;27286;47.870;19.006;2022-11-15T10:22:56;99398.69;;;8.17;90.11
41573;BME280;27286;47.870;19.006;2022-11-15T10:25:25;99390.06;;;8.17;90.03
41573;BME280;27286;47.870;19.006;2022-11-15T10:27:58;99380.44;;;8.20;89.93
41573;BME280;27286;47.870;19.006;2022-11-15T10:30:32;99391.59;;;8.22;89.77
41573;BME280;27286;47.870;19.006;2022-11-15T10:32:57;99379.59;;;8.20;90.00
41573;BME280;27286;47.870;19.006;2022-11-15T10:35:29;99380.38;;;8.22;90.12
41573;BME280;27286;47.870;19.006;2022-11-15T10:38:06;99399.16;;;8.30;89.95
41573;BME280;27286;47.870;19.006;2022-11-15T10:40:32;99387.25;;;8.24;90.04
41573;BME280;27286;47.870;19.006;2022-11-15T10:43:05;99387.25;;;8.24;90.13
41573;BME280;27286;47.870;19.006;2022-11-15T10:45:33;99371.06;;;8.16;89.96
41573;BME280;27286;47.870;19.006;2022-11-15T10:50:41;99358.09;;;8.16;89.85
41573;BME280;27286;47.870;19.006;2022-11-15T10:55:55;99357.03;;;8.23;89.45
41573;BME280;27286;47.870;19.006;2022-11-15T10:58:41;99352.56;;;8.27;89.42
41573;BME280;27286;47.870;19.006;2022-11-15T11:03:37;99334.53;;;8.24;89.42
41573;BME280;27286;47.870;19.006;2022-11-15T11:06:12;99339.84;;;8.19;89.81
41573;BME280;27286;47.870;19.006;2022-11-15T11:08:38;99331.56;;;7.81;90.32
41573;BME280;27286;47.870;19.006;2022-11-15T11:11:05;99336.34;;;7.38;89.77
41573;BME280;27286;47.870;19.006;2022-11-15T11:13:35;99336.19;;;7.44;93.90
41573;BME280;27286;47.870;19.006;2022-11-15T11:24:38;99333.50;;;7.17;96.34
41573;BME280;27286;47.870;19.006;2022-11-15T11:27:22;99317.38;;;7.09;96.78
41573;BME280;27286;47.870;19.006;2022-11-15T11:30:13;99318.06;;;7.14;97.68
41573;BME280;27286;47.870;19.006;2022-11-15T11:46:55;99317.03;;;7.20;97.55
41573;BME280;27286;47.870;19.006;2022-11-15T11:49:38;99305.44;;;7.33;98.88
41573;BME280;27286;47.870;19.006;2022-11-15T11:52:29;99303.38;;;7.44;99.75
41573;BME280;27286;47.870;19.006;2022-11-15T12:00:27;99282.50;;;7.49;100.00
41573;BME280;27286;47.870;19.006;2022-11-15T12:09:07;99288.06;;;7.37;97.38
41573;BME280;27286;47.870;19.006;2022-11-15T12:14:08;99267.59;;;7.29;97.57
41573;BME280;27286;47.870;19.006;2022-11-15T12:16:38;99245.81;;;7.35;99.92
41573;BME280;27286;47.870;19.006;2022-11-15T12:19:07;99263.72;;;7.42;98.87
41573;BME280;27286;47.870;19.006;2022-11-15T12:21:41;99263.00;;;7.37;97.97
41573;BME280;27286;47.870;19.006;2022-11-15T12:24:35;99244.50;;;7.21;97.66
41573;BME280;27286;47.870;19.006;2022-11-15T12:27:19;99262.63;;;7.21;97.00
41573;BME280;27286;47.870;19.006;2022-11-15T12:29:51;99235.44;;;7.08;97.40
41573;BME280;27286;47.870;19.006;2022-11-15T12:32:38;99246.63;;;7.37;99.09
41573;BME280;27286;47.870;19.006;2022-11-15T12:35:21;99237.09;;;7.37;100.00
41573;BME280;27286;47.870;19.006;2022-11-15T12:37:50;99235.28;;;7.41;100.00
41573;BME280;27286;47.870;19.006;2022-11-15T12:40:23;99239.78;;;7.62;100.00
41573;BME280;27286;47.870;19.006;2022-11-15T12:45:42;99210.78;;;7.51;100.00
41573;BME280;27286;47.870;19.006;2022-11-15T13:01:07;99195.34;;;7.74;99.60
41573;BME280;27286;47.870;19.006;2022-11-15T13:03:33;99192.47;;;7.82;100.00
41573;BME280;27286;47.870;19.006;2022-11-15T13:06:02;99195.13;;;7.80;98.75
41573;BME280;27286;47.870;19.006;2022-11-15T13:08:38;99189.31;;;7.74;99.19
41573;BME280;27286;47.870;19.006;2022-11-15T13:17:03;99195.38;;;7.73;98.08
41573;BME280;27286;47.870;19.006;2022-11-15T13:19:28;99168.72;;;7.69;98.89
41573;BME280;27286;47.870;19.006;2022-11-15T13:21:54;99191.91;;;7.72;97.75
41573;BME280;27286;47.870;19.006;2022-11-15T13:24:38;99197.25;;;7.68;97.41
41573;BME280;27286;47.870;19.006;2022-11-15T13:27:15;99192.69;;;7.76;99.87
41573;BME280;27286;47.870;19.006;2022-11-15T13:29:43;99206.31;;;7.81;99.26
41573;BME280;27286;47.870;19.006;2022-11-15T13:32:16;99174.16;;;7.62;98.80
41573;BME280;27286;47.870;19.006;2022-11-15T13:34:49;99186.59;;;7.77;100.00
41573;BME280;27286;47.870;19.006;2022-11-15T13:39:47;99187.63;;;7.71;98.99
41573;BME280;27286;47.870;19.006;2022-11-15T13:42:17;99169.47;;;7.73;100.00
41573;BME280;27286;47.870;19.006;2022-11-15T13:45:01;99180.63;;;7.75;100.00
41573;BME280;27286;47.870;19.006;2022-11-15T13:47:28;99181.66;;;7.69;100.00
41573;BME280;27286;47.870;19.006;2022-11-15T13:49:56;99172.91;;;7.73;100.00
41573;BME280;27286;47.870;19.006;2022-11-15T13:52:22;99154.06;;;7.68;100.00
41573;BME280;27286;47.870;19.006;2022-11-15T13:57:21;99161.22;;;7.62;100.00
41573;BME280;27286;47.870;19.006;2022-11-15T14:00:01;99152.59;;;7.61;100.00
41573;BME280;27286;47.870;19.006;2022-11-15T14:02:31;99168.03;;;7.64;100.00
41573;BME280;27286;47.870;19.006;2022-11-15T14:05:18;99143.44;;;7.51;100.00
41573;BME280;27286;47.870;19.006;2022-11-15T14:07:55;99138.06;;;7.57;100.00
41573;BME280;27286;47.870;19.006;2022-11-15T14:10:33;99143.31;;;7.54;99.74
41573;BME280;27286;47.870;19.006;2022-11-15T14:12:59;99155.19;;;7.61;100.00
41573;BME280;27286;47.870;19.006;2022-11-15T14:15:32;99134.63;;;7.57;100.00
41573;BME280;27286;47.870;19.006;2022-11-15T14:17:57;99152.53;;;7.63;99.60
41573;BME280;27286;47.870;19.006;2022-11-15T14:22:54;99133.56;;;7.62;100.00
41573;BME280;27286;47.870;19.006;2022-11-15T14:25:24;99143.88;;;7.64;100.00
41573;BME280;27286;47.870;19.006;2022-11-15T14:28:28;99142.34;;;7.58;100.00
41573;BME280;27286;47.870;19.006;2022-11-15T14:30:57;99138.53;;;7.68;100.00
41573;BME280;27286;47.870;19.006;2022-11-15T14:35:58;99144.94;;;7.58;99.98
41573;BME280;27286;47.870;19.006;2022-11-15T14:38:25;99141.16;;;7.67;100.00
41573;BME280;27286;47.870;19.006;2022-11-15T14:40:54;99132.66;;;7.63;100.00
41573;BME280;27286;47.870;19.006;2022-11-15T14:43:20;99123.41;;;7.56;99.16
41573;BME280;27286;47.870;19.006;2022-11-15T14:45:48;99117.34;;;7.57;100.00
41573;BME280;27286;47.870;19.006;2022-11-15T14:48:26;99101.13;;;7.50;100.00
41573;BME280;27286;47.870;19.006;2022-11-15T14:51:02;99103.22;;;7.41;99.62
41573;BME280;27286;47.870;19.006;2022-11-15T14:53:47;99110.47;;;7.56;100.00
41573;BME280;27286;47.870;19.006;2022-11-15T14:56:15;99107.28;;;7.48;100.00
41573;BME280;27286;47.870;19.006;2022-11-15T14:59:02;99089.75;;;7.30;99.11
41573;BME280;27286;47.870;19.006;2022-11-15T15:01:30;99082.00;;;7.30;99.68
41573;BME280;27286;47.870;19.006;2022-11-15T15:04:03;99097.22;;;7.39;99.60
41573;BME280;27286;47.870;19.006;2022-11-15T15:06:33;99094.94;;;7.30;98.24
41573;BME280;27286;47.870;19.006;2022-11-15T15:09:02;99066.81;;;7.19;98.82
41573;BME280;27286;47.870;19.006;2022-11-15T15:11:32;99092.09;;;7.37;98.79
41573;BME280;27286;47.870;19.006;2022-11-15T15:14:00;99072.84;;;7.19;97.19
41573;BME280;27286;47.870;19.006;2022-11-15T15:16:28;99080.38;;;7.27;97.92
41573;BME280;27286;47.870;19.006;2022-11-15T15:18:56;99063.13;;;7.26;99.16
41573;BME280;27286;47.870;19.006;2022-11-15T15:21:23;99059.94;;;7.18;97.23